sensor_id;sensor_type;location;lat;lon;timestamp;P1;durP1;ratioP1;P2;durP2;ratioP2
21800;SDS011;11062;51.164;16.924;2023-06-14T10:01:45;7.78;;;5.65;;
21800;SDS011;11062;51.164;16.924;2023-06-14T10:12:17;7.40;;;5.25;;
21800;SDS011;11062;51.164;16.924;2023-06-14T10:19:17;11.65;;;4.68;;
21800;SDS011;11062;51.164;16.924;2023-06-14T10:26:25;7.40;;;4.43;;
21800;SDS011;11062;51.164;16.924;2023-06-14T10:36:42;6.22;;;4.30;;
21800;SDS011;11062;51.164;16.924;2023-06-14T10:50:30;5.65;;;4.85;;
21800;SDS011;11062;51.164;16.924;2023-06-14T10:53:00;6.45;;;4.60;;
21800;SDS011;11062;51.164;16.924;2023-06-14T11:40:02;9.18;;;3.92;;
21800;SDS011;11062;51.164;16.924;2023-06-14T11:50:10;14.27;;;4.47;;
21800;SDS011;11062;51.164;16.924;2023-06-14T11:57:09;16.25;;;5.15;;
21800;SDS011;11062;51.164;16.924;2023-06-14T13:35:22;8.52;;;4.00;;
21800;SDS011;11062;51.164;16.924;2023-06-14T14:31:23;8.75;;;5.05;;
21800;SDS011;11062;51.164;16.924;2023-06-14T14:33:49;5.45;;;4.18;;
21800;SDS011;11062;51.164;16.924;2023-06-14T14:36:15;10.15;;;4.47;;
21800;SDS011;11062;51.164;16.924;2023-06-14T17:27:52;4.25;;;3.20;;
21800;SDS011;11062;51.164;16.924;2023-06-14T17:30:23;6.65;;;3.78;;
21800;SDS011;11062;51.164;16.924;2023-06-14T17:32:59;4.80;;;3.00;;
21800;SDS011;11062;51.164;16.924;2023-06-14T17:36:17;8.95;;;3.35;;
21800;SDS011;11062;51.164;16.924;2023-06-14T17:38:46;7.35;;;2.72;;
21800;SDS011;11062;51.164;16.924;2023-06-14T17:42:00;4.68;;;2.20;;
21800;SDS011;11062;51.164;16.924;2023-06-14T17:45:04;3.30;;;2.53;;
21800;SDS011;11062;51.164;16.924;2023-06-14T17:47:53;2.45;;;2.25;;
21800;SDS011;11062;51.164;16.924;2023-06-14T17:51:02;6.15;;;2.35;;
21800;SDS011;11062;51.164;16.924;2023-06-14T17:54:27;2.40;;;2.20;;
21800;SDS011;11062;51.164;16.924;2023-06-14T17:57:00;6.32;;;2.30;;
21800;SDS011;11062;51.164;16.924;2023-06-14T17:59:27;2.78;;;2.30;;
21800;SDS011;11062;51.164;16.924;2023-06-14T18:02:41;2.08;;;1.88;;
21800;SDS011;11062;51.164;16.924;2023-06-14T18:05:14;2.63;;;2.42;;
21800;SDS011;11062;51.164;16.924;2023-06-14T18:07:44;7.90;;;2.47;;
21800;SDS011;11062;51.164;16.924;2023-06-14T18:10:14;3.95;;;2.50;;
21800;SDS011;11062;51.164;16.924;2023-06-14T18:12:46;3.53;;;2.55;;
21800;SDS011;11062;51.164;16.924;2023-06-14T18:15:15;5.75;;;2.55;;
21800;SDS011;11062;51.164;16.924;2023-06-14T18:17:48;4.18;;;2.40;;
21800;SDS011;11062;51.164;16.924;2023-06-14T18:25:36;5.47;;;2.80;;
21800;SDS011;11062;51.164;16.924;2023-06-14T18:42:55;5.80;;;2.47;;
21800;SDS011;11062;51.164;16.924;2023-06-14T19:15:29;2.90;;;2.08;;
21800;SDS011;11062;51.164;16.924;2023-06-14T19:42:29;4.30;;;2.20;;
21800;SDS011;11062;51.164;16.924;2023-06-14T19:45:03;3.40;;;2.33;;
21800;SDS011;11062;51.164;16.924;2023-06-14T19:50:08;2.33;;;2.05;;
21800;SDS011;11062;51.164;16.924;2023-06-14T19:52:39;5.45;;;2.22;;
21800;SDS011;11062;51.164;16.924;2023-06-14T19:55:31;5.95;;;2.30;;
21800;SDS011;11062;51.164;16.924;2023-06-14T20:15:13;5.38;;;2.22;;
21800;SDS011;11062;51.164;16.924;2023-06-14T20:18:33;2.75;;;2.42;;
21800;SDS011;11062;51.164;16.924;2023-06-14T20:21:07;2.35;;;2.15;;
21800;SDS011;11062;51.164;16.924;2023-06-14T20:23:41;4.57;;;2.50;;
21800;SDS011;11062;51.164;16.924;2023-06-14T20:33:32;3.17;;;2.78;;
21800;SDS011;11062;51.164;16.924;2023-06-14T20:44:06;3.60;;;2.08;;
21800;SDS011;11062;51.164;16.924;2023-06-14T21:00:38;6.68;;;2.63;;
21800;SDS011;11062;51.164;16.924;2023-06-14T21:04:01;2.63;;;2.17;;
21800;SDS011;11062;51.164;16.924;2023-06-14T21:06:27;2.92;;;2.13;;
21800;SDS011;11062;51.164;16.924;2023-06-14T21:08:54;3.22;;;2.75;;
21800;SDS011;11062;51.164;16.924;2023-06-14T21:11:20;4.80;;;2.75;;
21800;SDS011;11062;51.164;16.924;2023-06-14T21:13:46;4.28;;;2.40;;
21800;SDS011;11062;51.164;16.924;2023-06-14T21:16:18;6.28;;;2.30;;
21800;SDS011;11062;51.164;16.924;2023-06-14T21:18:46;3.55;;;2.30;;
21800;SDS011;11062;51.164;16.924;2023-06-14T21:21:12;9.10;;;2.70;;
21800;SDS011;11062;51.164;16.924;2023-06-14T21:23:38;7.97;;;2.50;;
21800;SDS011;11062;51.164;16.924;2023-06-14T21:26:04;6.78;;;2.40;;
21800;SDS011;11062;51.164;16.924;2023-06-14T21:28:32;3.30;;;2.38;;
21800;SDS011;11062;51.164;16.924;2023-06-14T21:30:58;5.30;;;2.60;;
21800;SDS011;11062;51.164;16.924;2023-06-14T21:33:32;3.92;;;2.90;;
21800;SDS011;11062;51.164;16.924;2023-06-14T21:35:59;6.32;;;2.75;;
21800;SDS011;11062;51.164;16.924;2023-06-14T21:38:27;4.72;;;2.78;;
21800;SDS011;11062;51.164;16.924;2023-06-14T21:41:04;7.10;;;2.75;;
21800;SDS011;11062;51.164;16.924;2023-06-14T21:43:37;8.00;;;2.60;;
21800;SDS011;11062;51.164;16.924;2023-06-14T21:46:03;3.33;;;2.53;;
21800;SDS011;11062;51.164;16.924;2023-06-14T21:48:29;5.20;;;2.50;;
21800;SDS011;11062;51.164;16.924;2023-06-14T21:50:58;5.18;;;2.40;;
21800;SDS011;11062;51.164;16.924;2023-06-14T21:53:24;3.92;;;2.50;;
21800;SDS011;11062;51.164;16.924;2023-06-14T21:55:50;2.53;;;2.33;;
21800;SDS011;11062;51.164;16.924;2023-06-14T21:58:19;3.90;;;3.03;;
21800;SDS011;11062;51.164;16.924;2023-06-14T22:00:47;4.07;;;2.65;;
21800;SDS011;11062;51.164;16.924;2023-06-14T22:03:19;4.95;;;2.15;;
21800;SDS011;11062;51.164;16.924;2023-06-14T22:05:45;4.93;;;3.00;;
21800;SDS011;11062;51.164;16.924;2023-06-14T22:45:26;7.22;;;2.55;;
21800;SDS011;11062;51.164;16.924;2023-06-14T22:47:59;6.68;;;2.70;;
21800;SDS011;11062;51.164;16.924;2023-06-14T22:51:33;5.57;;;2.63;;
21800;SDS011;11062;51.164;16.924;2023-06-14T22:54:58;4.20;;;3.17;;
21800;SDS011;11062;51.164;16.924;2023-06-14T22:58:38;9.60;;;3.63;;
21800;SDS011;11062;51.164;16.924;2023-06-14T23:02:00;5.75;;;3.67;;
21800;SDS011;11062;51.164;16.924;2023-06-14T23:09:17;3.45;;;3.15;;
21800;SDS011;11062;51.164;16.924;2023-06-14T23:12:01;3.83;;;3.17;;
21800;SDS011;11062;51.164;16.924;2023-06-14T23:14:39;7.70;;;3.05;;
21800;SDS011;11062;51.164;16.924;2023-06-14T23:17:08;4.53;;;3.25;;
21800;SDS011;11062;51.164;16.924;2023-06-14T23:26:54;3.83;;;2.85;;
21800;SDS011;11062;51.164;16.924;2023-06-14T23:33:57;4.32;;;3.28;;
21800;SDS011;11062;51.164;16.924;2023-06-14T23:40:31;5.03;;;3.65;;
21800;SDS011;11062;51.164;16.924;2023-06-14T23:44:01;6.05;;;3.88;;
21800;SDS011;11062;51.164;16.924;2023-06-14T23:46:36;5.72;;;3.10;;
21800;SDS011;11062;51.164;16.924;2023-06-14T23:49:06;4.90;;;3.47;;
21800;SDS011;11062;51.164;16.924;2023-06-14T23:51:37;5.47;;;4.10;;
21800;SDS011;11062;51.164;16.924;2023-06-14T23:54:06;5.07;;;3.67;;
21800;SDS011;11062;51.164;16.924;2023-06-14T23:56:34;4.10;;;3.42;;
21800;SDS011;11062;51.164;16.924;2023-06-14T23:59:04;3.53;;;3.20;;
